createdAt,value
2022-11-22T00:00:56.162Z,50.25
2022-11-22T00:03:24.084Z,49.15
2022-11-22T00:05:51.989Z,50.25
2022-11-22T00:08:19.988Z,49.95
2022-11-22T00:10:51.241Z,49.60
2022-11-22T00:13:20.116Z,45.95
2022-11-22T00:15:59.360Z,47.15
2022-11-22T00:18:27.384Z,49.13
2022-11-22T00:20:55.333Z,49.85
2022-11-22T00:23:23.777Z,50.53
2022-11-22T00:25:53.096Z,56.63
2022-11-22T00:28:20.992Z,56.30
2022-11-22T00:30:48.892Z,56.35
2022-11-22T00:33:16.829Z,57.20
2022-11-22T00:35:46.428Z,59.17
2022-11-22T00:38:14.379Z,64.47
2022-11-22T00:40:42.329Z,58.38
2022-11-22T00:43:11.612Z,63.17
2022-11-22T00:45:42.041Z,61.28
2022-11-22T00:48:10.365Z,64.95
2022-11-22T00:50:38.307Z,61.97
2022-11-22T00:53:06.391Z,58.35
2022-11-22T00:55:34.354Z,55.35
2022-11-22T00:58:02.331Z,52.67
2022-11-22T01:00:31.671Z,48.70
2022-11-22T01:02:59.598Z,48.47
2022-11-22T01:05:27.535Z,50.95
2022-11-22T01:07:56.284Z,49.05
2022-11-22T01:10:24.339Z,46.13
2022-11-22T01:12:52.245Z,46.65
2022-11-22T01:15:20.521Z,47.85
2022-11-22T01:17:49.924Z,42.17
2022-11-22T01:20:17.930Z,46.95
2022-11-22T01:22:45.864Z,47.25
2022-11-22T01:25:13.920Z,45.72
2022-11-22T01:27:41.882Z,42.30
2022-11-22T01:30:10.456Z,46.40
2022-11-22T01:32:38.431Z,44.85
2022-11-22T01:35:10.531Z,49.78
2022-11-22T01:40:07.730Z,45.85
2022-11-22T01:42:49.718Z,45.60
2022-11-22T01:45:43.462Z,46.60
2022-11-22T01:48:26.770Z,42.53
2022-11-22T01:51:02.226Z,41.22
2022-11-22T01:53:34.102Z,42.97
2022-11-22T01:56:05.606Z,42.25
2022-11-22T01:58:35.929Z,41.80
2022-11-22T02:01:04.290Z,40.60
2022-11-22T02:03:35.734Z,40.65
2022-11-22T02:06:05.754Z,37.83
2022-11-22T02:08:40.856Z,40.60
2022-11-22T02:11:10.610Z,42.58
2022-11-22T02:13:42.725Z,39.58
2022-11-22T02:16:12.456Z,37.85
2022-11-22T02:18:40.608Z,39.70
2022-11-22T02:21:10.434Z,38.28
2022-11-22T02:23:57.713Z,40.20
2022-11-22T02:26:29.410Z,38.97
2022-11-22T02:29:03.133Z,41.13
2022-11-22T02:31:36.330Z,38.80
2022-11-22T02:34:04.267Z,40.90
2022-11-22T02:36:36.949Z,38.88
2022-11-22T02:39:05.234Z,42.50
2022-11-22T02:41:35.121Z,39.90
2022-11-22T02:44:03.430Z,37.92
2022-11-22T02:46:31.413Z,34.95
2022-11-22T02:48:59.333Z,38.33
2022-11-22T02:51:27.316Z,33.10
2022-11-22T02:53:56.805Z,32.03
2022-11-22T02:56:24.731Z,32.22
2022-11-22T02:58:56.588Z,24.50
2022-11-22T03:01:24.750Z,21.75
2022-11-22T03:03:52.788Z,24.58
2022-11-22T03:06:20.745Z,21.45
2022-11-22T03:08:53.175Z,22.52
2022-11-22T03:11:23.931Z,21.55
2022-11-22T03:13:53.330Z,22.33
2022-11-22T03:16:21.292Z,19.10
2022-11-22T03:18:49.215Z,16.00
2022-11-22T03:21:17.184Z,14.30
2022-11-22T03:23:45.166Z,13.88
2022-11-22T03:26:13.660Z,16.02
2022-11-22T03:28:41.669Z,17.13
2022-11-22T03:31:10.996Z,15.40
2022-11-22T03:33:38.883Z,11.70
2022-11-22T03:36:06.819Z,13.18
2022-11-22T03:38:35.831Z,12.68
2022-11-22T03:41:03.801Z,13.10
2022-11-22T03:43:31.923Z,12.07
2022-11-22T03:45:59.867Z,13.10
2022-11-22T03:48:29.141Z,12.80
2022-11-22T03:51:04.593Z,13.57
2022-11-22T03:53:32.977Z,15.77
2022-11-22T03:56:02.014Z,15.45
2022-11-22T03:58:30.019Z,13.85
2022-11-22T04:00:58.550Z,15.57
2022-11-22T04:03:28.077Z,15.48
2022-11-22T04:05:55.988Z,16.08
2022-11-22T04:08:24.202Z,13.98
2022-11-22T04:10:52.335Z,15.07
2022-11-22T04:13:20.648Z,13.45
2022-11-22T04:15:47.702Z,14.55
2022-11-22T04:18:16.098Z,14.50
2022-11-22T04:21:02.975Z,15.20
2022-11-22T04:23:33.964Z,14.73
2022-11-22T04:26:01.398Z,15.27
2022-11-22T04:29:01.458Z,16.75
2022-11-22T04:31:35.265Z,17.52
2022-11-22T04:34:03.229Z,19.02
2022-11-22T04:36:32.550Z,19.60
2022-11-22T04:39:00.483Z,20.30
2022-11-22T04:41:28.418Z,19.20
2022-11-22T04:44:13.644Z,19.77
2022-11-22T04:46:41.607Z,20.52
2022-11-22T04:49:09.574Z,20.33
2022-11-22T04:52:04.792Z,17.85
2022-11-22T04:54:32.668Z,17.27
2022-11-22T04:57:00.551Z,14.55
2022-11-22T04:59:28.800Z,15.93
2022-11-22T05:01:56.881Z,18.00
2022-11-22T05:04:24.826Z,15.63
2022-11-22T05:06:54.160Z,16.00
2022-11-22T05:09:22.092Z,17.00
2022-11-22T05:11:49.988Z,17.02
2022-11-22T05:14:17.877Z,13.55
2022-11-22T05:16:45.829Z,14.25
2022-11-22T05:19:13.760Z,12.68
2022-11-22T05:21:41.656Z,12.43
2022-11-22T05:24:10.107Z,14.73
2022-11-22T05:26:38.061Z,14.13
2022-11-22T05:29:07.404Z,14.23
2022-11-22T05:31:36.593Z,12.30
2022-11-22T05:34:05.378Z,12.77
2022-11-22T05:36:34.386Z,12.25
2022-11-22T05:39:02.939Z,9.45
2022-11-22T05:41:32.238Z,10.00
2022-11-22T05:44:00.162Z,11.80
2022-11-22T05:46:30.147Z,9.30
2022-11-22T05:48:59.526Z,10.57
2022-11-22T05:51:33.972Z,9.02
2022-11-22T05:54:02.891Z,9.15
2022-11-22T05:56:32.232Z,10.07
2022-11-22T05:59:00.217Z,10.00
2022-11-22T06:01:28.224Z,9.68
2022-11-22T06:03:56.264Z,10.32
2022-11-22T06:06:24.252Z,9.88
2022-11-22T06:08:52.168Z,10.27
2022-11-22T06:11:22.191Z,9.55
2022-11-22T06:13:52.948Z,10.43
2022-11-22T06:16:21.202Z,10.40
2022-11-22T06:18:49.427Z,11.70
2022-11-22T06:21:19.331Z,10.98
2022-11-22T06:23:47.882Z,10.70
2022-11-22T06:26:17.807Z,9.77
2022-11-22T06:28:46.710Z,9.18
2022-11-22T06:31:18.329Z,10.88
2022-11-22T06:33:46.969Z,8.63
2022-11-22T06:36:16.637Z,9.85
2022-11-22T06:38:46.159Z,10.50
2022-11-22T06:41:15.816Z,11.60
2022-11-22T06:43:48.555Z,9.30
2022-11-22T06:46:20.084Z,9.15
2022-11-22T06:48:48.770Z,9.30
2022-11-22T06:51:18.424Z,8.90
2022-11-22T06:53:48.582Z,9.80
2022-11-22T06:56:18.921Z,9.75
2022-11-22T06:58:47.664Z,10.65
2022-11-22T07:01:18.836Z,10.05
2022-11-22T07:03:47.341Z,10.40
2022-11-22T07:06:16.749Z,9.15
2022-11-22T07:08:45.361Z,10.07
2022-11-22T07:11:15.361Z,9.07
2022-11-22T07:13:43.625Z,11.38
2022-11-22T07:16:13.167Z,8.85
2022-11-22T07:18:42.784Z,8.55
2022-11-22T07:21:19.478Z,10.35
2022-11-22T07:23:49.641Z,8.65
2022-11-22T07:26:18.976Z,8.50
2022-11-22T07:28:47.125Z,10.02
2022-11-22T07:31:16.790Z,9.30
2022-11-22T07:33:46.248Z,9.25
2022-11-22T07:36:16.010Z,9.70
2022-11-22T07:38:44.244Z,9.45
2022-11-22T07:41:12.216Z,8.80
2022-11-22T07:43:40.302Z,7.90
2022-11-22T07:46:12.566Z,7.78
2022-11-22T07:48:40.573Z,7.45
2022-11-22T07:51:10.038Z,8.10
2022-11-22T07:53:37.940Z,8.52
2022-11-22T07:56:06.920Z,6.95
2022-11-22T07:58:35.810Z,8.85
2022-11-22T08:01:07.541Z,8.43
2022-11-22T08:03:36.049Z,8.45
2022-11-22T08:06:05.944Z,8.75
2022-11-22T08:08:35.870Z,7.97
2022-11-22T08:11:04.295Z,7.28
2022-11-22T08:13:32.656Z,7.65
2022-11-22T08:16:05.501Z,6.97
2022-11-22T08:18:34.473Z,7.03
2022-11-22T08:21:10.446Z,6.93
2022-11-22T08:23:40.678Z,8.38
2022-11-22T08:26:10.228Z,8.05
2022-11-22T08:28:38.150Z,7.72
2022-11-22T08:31:08.480Z,5.93
2022-11-22T08:33:36.547Z,6.63
2022-11-22T08:36:04.870Z,8.27
2022-11-22T08:38:32.826Z,8.40
2022-11-22T08:41:02.286Z,7.40
2022-11-22T08:43:30.238Z,7.88
2022-11-22T08:45:59.926Z,7.97
2022-11-22T08:48:28.497Z,8.30
2022-11-22T08:50:58.338Z,6.60
2022-11-22T08:53:27.368Z,7.78
2022-11-22T08:55:56.441Z,7.40
2022-11-22T08:58:25.728Z,7.82
2022-11-22T09:00:53.812Z,7.47
2022-11-22T09:03:21.746Z,7.35
2022-11-22T09:08:40.585Z,6.95
2022-11-22T09:11:13.596Z,7.38
2022-11-22T09:13:43.689Z,6.85
2022-11-22T09:16:13.371Z,7.07
2022-11-22T09:18:41.716Z,8.00
2022-11-22T09:21:11.807Z,5.80
2022-11-22T09:23:39.735Z,6.13
2022-11-22T09:26:09.708Z,6.53
2022-11-22T09:28:37.922Z,6.57
2022-11-22T09:31:08.844Z,6.13
2022-11-22T09:33:38.221Z,6.47
2022-11-22T09:36:08.381Z,5.68
2022-11-22T09:38:37.380Z,6.47
2022-11-22T09:41:20.340Z,7.00
2022-11-22T09:43:54.172Z,6.78
2022-11-22T09:46:37.990Z,5.82
2022-11-22T09:49:29.254Z,6.00
2022-11-22T09:52:05.471Z,6.20
2022-11-22T09:54:39.811Z,6.00
2022-11-22T09:57:16.311Z,5.05
2022-11-22T09:59:48.441Z,4.78
2022-11-22T10:02:22.432Z,4.28
2022-11-22T10:04:55.635Z,4.30
2022-11-22T10:07:30.199Z,5.20
2022-11-22T10:10:03.969Z,5.53
2022-11-22T10:12:37.710Z,4.93
2022-11-22T10:15:14.117Z,4.97
2022-11-22T10:17:54.822Z,4.63
2022-11-22T10:20:24.955Z,4.45
2022-11-22T10:22:53.536Z,4.53
2022-11-22T10:25:23.215Z,5.03
2022-11-22T10:27:59.079Z,4.40
2022-11-22T10:30:35.590Z,4.85
2022-11-22T10:33:14.137Z,5.00
2022-11-22T10:36:12.908Z,4.80
2022-11-22T10:38:53.488Z,5.70
2022-11-22T10:41:40.710Z,4.97
2022-11-22T10:44:25.589Z,5.40
2022-11-22T10:47:01.807Z,5.03
2022-11-22T10:49:45.016Z,4.65
2022-11-22T10:52:18.963Z,4.20
2022-11-22T10:54:54.664Z,4.45
2022-11-22T10:57:30.448Z,5.05
2022-11-22T11:00:14.608Z,5.18
2022-11-22T11:03:03.310Z,5.47
2022-11-22T11:05:42.088Z,5.35
2022-11-22T11:08:48.056Z,5.25
2022-11-22T11:11:17.743Z,4.90
2022-11-22T11:13:48.535Z,4.70
2022-11-22T11:16:20.224Z,4.60
2022-11-22T11:18:51.485Z,4.85
2022-11-22T11:21:20.818Z,5.35
2022-11-22T11:23:48.950Z,4.75
2022-11-22T11:26:24.195Z,4.15
2022-11-22T11:28:52.531Z,4.68
2022-11-22T11:31:21.763Z,4.82
2022-11-22T11:33:49.717Z,4.25
2022-11-22T11:36:22.166Z,4.95
2022-11-22T11:41:25.076Z,4.15
2022-11-22T11:43:54.604Z,4.88
2022-11-22T11:46:24.277Z,4.68
2022-11-22T11:48:53.407Z,5.20
2022-11-22T11:51:33.659Z,4.55
2022-11-22T11:54:04.399Z,4.72
2022-11-22T11:56:35.800Z,5.20
2022-11-22T11:59:12.165Z,4.70
2022-11-22T12:01:45.817Z,4.85
2022-11-22T12:04:21.998Z,4.38
2022-11-22T12:07:04.161Z,4.70
2022-11-22T12:09:37.553Z,4.63
2022-11-22T12:12:33.360Z,4.75
2022-11-22T12:15:11.679Z,4.40
2022-11-22T12:17:48.500Z,5.05
2022-11-22T12:20:19.929Z,4.45
2022-11-22T12:22:58.708Z,5.13
2022-11-22T12:25:36.320Z,4.35
2022-11-22T12:28:14.140Z,4.65
2022-11-22T12:30:44.258Z,4.72
2022-11-22T12:33:20.717Z,4.50
2022-11-22T12:35:50.803Z,4.50
2022-11-22T12:38:24.393Z,3.65
2022-11-22T12:40:55.744Z,4.47
2022-11-22T12:43:27.257Z,4.30
2022-11-22T12:45:59.037Z,4.43
2022-11-22T12:48:31.146Z,3.92
2022-11-22T12:51:03.820Z,4.57
2022-11-22T12:53:37.826Z,3.75
2022-11-22T12:56:17.751Z,4.68
2022-11-22T12:58:56.165Z,3.72
2022-11-22T13:01:30.282Z,4.90
2022-11-22T13:04:02.636Z,4.57
2022-11-22T13:06:35.804Z,4.07
2022-11-22T13:09:07.970Z,3.92
2022-11-22T13:11:40.932Z,4.10
2022-11-22T13:14:20.723Z,3.75
2022-11-22T13:16:50.778Z,5.18
2022-11-22T13:19:21.063Z,4.68
2022-11-22T13:22:05.866Z,4.55
2022-11-22T13:24:46.131Z,4.85
2022-11-22T13:27:20.293Z,4.10
2022-11-22T13:29:52.540Z,4.65
2022-11-22T13:32:23.872Z,4.50
2022-11-22T13:35:05.755Z,4.07
2022-11-22T13:37:37.769Z,4.63
2022-11-22T13:40:27.258Z,3.83
2022-11-22T13:43:32.770Z,4.45
2022-11-22T13:46:02.319Z,5.05
2022-11-22T13:49:07.739Z,4.82
2022-11-22T13:51:56.376Z,5.05
2022-11-22T13:54:56.799Z,4.47
2022-11-22T13:57:37.922Z,5.00
2022-11-22T14:00:36.252Z,4.03
2022-11-22T14:03:23.848Z,4.07
2022-11-22T14:05:54.789Z,4.55
2022-11-22T14:08:34.039Z,4.75
2022-11-22T14:11:18.868Z,5.05
2022-11-22T14:13:55.795Z,4.65
2022-11-22T14:16:36.133Z,4.75
2022-11-22T14:19:12.887Z,5.07
2022-11-22T14:21:50.734Z,4.88
2022-11-22T14:24:30.593Z,5.35
2022-11-22T14:27:05.790Z,5.38
2022-11-22T14:30:03.460Z,6.32
2022-11-22T14:32:57.782Z,5.80
2022-11-22T14:35:32.330Z,4.80
2022-11-22T14:38:16.378Z,5.53
2022-11-22T14:40:44.369Z,5.32
2022-11-22T14:43:26.621Z,5.60
2022-11-22T14:46:00.609Z,5.25
2022-11-22T14:48:34.556Z,5.18
2022-11-22T14:51:09.159Z,4.57
2022-11-22T14:53:44.526Z,4.90
2022-11-22T14:56:17.610Z,5.55
2022-11-22T14:58:58.701Z,5.85
2022-11-22T15:01:56.315Z,4.90
2022-11-22T15:09:15.081Z,5.40
2022-11-22T15:09:17.864Z,5.35
2022-11-22T15:11:15.507Z,5.53
2022-11-22T15:14:09.110Z,6.15
2022-11-22T15:57:27.373Z,10.20
2022-11-22T15:59:56.585Z,10.18
2022-11-22T16:02:27.644Z,11.75
2022-11-22T16:06:05.660Z,10.90
2022-11-22T16:07:50.606Z,11.30
2022-11-22T16:10:21.180Z,11.37
2022-11-22T16:12:49.374Z,11.77
2022-11-22T16:15:30.146Z,12.73
2022-11-22T16:18:08.512Z,12.45
2022-11-22T16:20:37.378Z,14.02
2022-11-22T16:23:19.865Z,14.27
2022-11-22T16:28:28.892Z,14.73
2022-11-22T16:30:58.449Z,15.93
2022-11-22T16:33:26.639Z,17.00
2022-11-22T16:35:56.121Z,17.08
2022-11-22T16:38:26.401Z,18.67
2022-11-22T16:40:56.971Z,16.73
2022-11-22T16:43:35.344Z,16.40
2022-11-22T16:46:04.300Z,15.80
2022-11-22T16:48:33.267Z,15.60
2022-11-22T16:51:05.233Z,15.30
2022-11-22T16:53:40.896Z,16.67
2022-11-22T16:56:09.347Z,16.75
2022-11-22T16:58:37.436Z,16.10
2022-11-22T17:01:05.532Z,17.00
2022-11-22T17:03:37.728Z,14.93
2022-11-22T17:06:05.748Z,16.17
2022-11-22T17:08:33.819Z,16.85
2022-11-22T17:11:03.211Z,16.98
2022-11-22T17:13:31.171Z,15.18
2022-11-22T17:15:59.165Z,14.73
2022-11-22T17:18:28.709Z,14.25
2022-11-22T17:20:56.760Z,14.45
2022-11-22T17:23:29.478Z,14.75
2022-11-22T17:25:57.369Z,14.95
2022-11-22T17:28:26.790Z,14.88
2022-11-22T17:30:55.145Z,15.20
2022-11-22T17:33:24.921Z,15.20
2022-11-22T17:35:53.312Z,16.20
2022-11-22T17:38:21.360Z,14.48
2022-11-22T17:40:50.597Z,13.82
2022-11-22T17:43:18.499Z,14.05
2022-11-22T17:45:47.724Z,14.73
2022-11-22T17:48:18.267Z,14.90
2022-11-22T17:50:46.277Z,13.30
2022-11-22T17:53:14.199Z,15.60
2022-11-22T17:56:09.019Z,15.80
2022-11-22T17:58:31.449Z,13.98
2022-11-22T18:01:08.408Z,14.50
2022-11-22T18:03:36.588Z,13.68
2022-11-22T18:06:05.236Z,15.32
2022-11-22T18:08:34.076Z,15.43
2022-11-22T18:11:03.264Z,15.02
2022-11-22T18:13:33.141Z,14.38
2022-11-22T18:16:03.840Z,15.77
2022-11-22T18:18:55.567Z,15.23
2022-11-22T18:21:21.817Z,12.93
2022-11-22T18:23:49.697Z,13.45
2022-11-22T18:31:54.157Z,12.50
2022-11-22T18:34:24.204Z,11.65
2022-11-22T18:36:56.372Z,12.05
2022-11-22T18:39:25.801Z,12.98
2022-11-22T18:41:53.712Z,12.57
2022-11-22T18:44:21.597Z,11.10
2022-11-22T18:46:52.390Z,11.63
2022-11-22T18:49:20.353Z,12.70
2022-11-22T18:51:49.732Z,13.50
2022-11-22T18:54:18.274Z,11.48
2022-11-22T18:56:46.321Z,14.13
2022-11-22T18:59:15.017Z,11.60
2022-11-22T19:01:43.659Z,12.23
2022-11-22T19:04:14.511Z,13.25
2022-11-22T19:06:43.104Z,12.02
2022-11-22T19:09:13.754Z,13.30
2022-11-22T19:11:41.787Z,13.73
2022-11-22T19:14:09.963Z,14.05
2022-11-22T19:16:37.902Z,13.18
2022-11-22T19:19:05.813Z,13.95
2022-11-22T19:21:33.877Z,12.40
2022-11-22T19:24:01.748Z,13.48
2022-11-22T19:26:31.122Z,14.60
2022-11-22T19:29:02.572Z,13.93
2022-11-22T19:31:33.693Z,14.32
2022-11-22T19:34:01.661Z,15.23
2022-11-22T19:36:33.843Z,14.57
2022-11-22T19:39:03.699Z,15.05
2022-11-22T19:41:33.290Z,15.43
2022-11-22T19:44:01.675Z,15.52
2022-11-22T19:46:30.225Z,14.88
2022-11-22T19:49:01.754Z,15.88
2022-11-22T19:51:31.901Z,15.17
2022-11-22T19:54:02.672Z,15.15
2022-11-22T19:56:33.453Z,14.95
2022-11-22T19:59:03.828Z,14.50
2022-11-22T20:01:36.190Z,15.02
2022-11-22T20:04:07.022Z,14.45
2022-11-22T20:06:36.307Z,15.35
2022-11-22T20:09:05.674Z,13.68
2022-11-22T20:11:35.021Z,13.80
2022-11-22T20:14:03.913Z,15.07
2022-11-22T20:16:32.203Z,17.15
2022-11-22T20:19:01.371Z,16.45
2022-11-22T20:21:30.821Z,17.38
2022-11-22T20:24:00.374Z,18.95
2022-11-22T20:26:28.956Z,19.42
2022-11-22T20:28:59.830Z,17.80
2022-11-22T20:31:28.710Z,16.42
2022-11-22T20:33:57.179Z,18.67
2022-11-22T20:36:27.132Z,17.88
2022-11-22T20:38:56.092Z,19.63
2022-11-22T20:41:25.711Z,21.58
2022-11-22T20:43:53.788Z,21.63
2022-11-22T20:46:25.101Z,20.35
2022-11-22T20:48:53.946Z,22.38
2022-11-22T20:51:23.542Z,20.63
2022-11-22T20:53:51.583Z,21.30
2022-11-22T20:56:20.070Z,21.60
2022-11-22T20:58:48.380Z,20.85
2022-11-22T21:01:18.384Z,19.65
2022-11-22T21:03:48.124Z,19.35
2022-11-22T21:06:17.274Z,20.45
2022-11-22T21:08:45.848Z,20.38
2022-11-22T21:11:15.448Z,22.45
2022-11-22T21:13:44.542Z,22.42
2022-11-22T21:16:22.632Z,24.85
2022-11-22T21:18:53.076Z,26.13
2022-11-22T21:21:23.698Z,28.60
2022-11-22T21:23:52.387Z,28.05
2022-11-22T21:26:20.762Z,28.15
2022-11-22T21:28:48.748Z,29.48
2022-11-22T21:31:16.717Z,27.88
2022-11-22T21:33:45.694Z,29.70
2022-11-22T21:36:15.516Z,29.88
2022-11-22T21:38:43.527Z,29.67
2022-11-22T21:44:02.546Z,31.17
2022-11-22T21:46:30.479Z,30.95
2022-11-22T21:48:58.481Z,30.55
2022-11-22T21:51:27.935Z,30.95
2022-11-22T21:53:58.487Z,31.77
2022-11-22T21:56:26.727Z,42.65
2022-11-22T21:58:54.817Z,31.38
2022-11-22T22:01:23.350Z,29.45
2022-11-22T22:03:51.482Z,28.20
2022-11-22T22:06:19.759Z,30.95
2022-11-22T22:08:49.078Z,30.10
2022-11-22T22:11:17.322Z,30.73
2022-11-22T22:13:45.341Z,29.35
2022-11-22T22:16:18.773Z,28.92
2022-11-22T22:18:47.312Z,29.45
2022-11-22T22:21:16.271Z,29.88
2022-11-22T22:23:44.986Z,30.98
2022-11-22T22:26:15.980Z,31.20
2022-11-22T22:28:45.389Z,32.15
2022-11-22T22:31:16.780Z,34.15
2022-11-22T22:33:45.498Z,36.33
2022-11-22T22:36:14.214Z,33.63
2022-11-22T22:38:42.620Z,35.47
2022-11-22T22:41:13.003Z,36.45
2022-11-22T22:43:43.752Z,36.15
2022-11-22T22:46:14.119Z,36.33
2022-11-22T22:48:42.826Z,36.50
2022-11-22T22:51:13.801Z,35.72
2022-11-22T22:53:42.157Z,36.35
2022-11-22T22:56:10.893Z,37.30
2022-11-22T22:58:39.153Z,37.88
2022-11-22T23:01:10.125Z,36.08
2022-11-22T23:03:38.110Z,36.75
2022-11-22T23:06:07.376Z,39.60
2022-11-22T23:08:35.587Z,38.40
2022-11-22T23:11:05.023Z,37.72
2022-11-22T23:13:33.001Z,38.08
2022-11-22T23:16:01.163Z,37.28
2022-11-22T23:18:30.558Z,38.47
2022-11-22T23:21:01.941Z,41.20
2022-11-22T23:23:30.692Z,40.72
2022-11-22T23:26:03.176Z,40.28
2022-11-22T23:28:31.585Z,40.53
2022-11-22T23:31:05.551Z,42.08
2022-11-22T23:33:34.928Z,42.22
2022-11-22T23:36:04.656Z,43.58
2022-11-22T23:38:32.835Z,46.80
2022-11-22T23:41:01.062Z,47.50
2022-11-22T23:43:29.697Z,45.35
2022-11-22T23:45:58.659Z,45.72
2022-11-22T23:48:26.880Z,45.60
2022-11-22T23:50:56.292Z,46.03
2022-11-22T23:53:24.221Z,44.63
2022-11-22T23:55:52.107Z,46.22
2022-11-22T23:58:19.988Z,48.47
